sensor_id;sensor_type;location;lat;lon;timestamp;P1;durP1;ratioP1;P2;durP2;ratioP2
3979;SDS011;2004;52.452;13.120;2023-02-23T00:27:28;30.27;;;11.90;;
3979;SDS011;2004;52.452;13.120;2023-02-23T00:35:19;27.53;;;9.50;;
3979;SDS011;2004;52.452;13.120;2023-02-23T00:43:09;38.13;;;11.20;;
3979;SDS011;2004;52.452;13.120;2023-02-23T00:51:00;27.30;;;9.97;;
3979;SDS011;2004;52.452;13.120;2023-02-23T00:58:53;26.70;;;11.00;;
3979;SDS011;2004;52.452;13.120;2023-02-23T01:06:44;33.87;;;13.60;;
3979;SDS011;2004;52.452;13.120;2023-02-23T01:14:35;31.67;;;13.60;;
3979;SDS011;2004;52.452;13.120;2023-02-23T01:22:26;38.43;;;14.10;;
3979;SDS011;2004;52.452;13.120;2023-02-23T01:30:17;37.63;;;13.50;;
3979;SDS011;2004;52.452;13.120;2023-02-23T01:38:09;30.03;;;13.50;;
3979;SDS011;2004;52.452;13.120;2023-02-23T01:46:00;35.50;;;14.67;;
3979;SDS011;2004;52.452;13.120;2023-02-23T01:53:59;49.83;;;16.20;;
3979;SDS011;2004;52.452;13.120;2023-02-23T02:01:56;38.73;;;14.47;;
3979;SDS011;2004;52.452;13.120;2023-02-23T02:09:47;37.17;;;15.73;;
3979;SDS011;2004;52.452;13.120;2023-02-23T02:18:02;36.27;;;15.27;;
3979;SDS011;2004;52.452;13.120;2023-02-23T02:26:30;42.40;;;15.00;;
3979;SDS011;2004;52.452;13.120;2023-02-23T02:43:09;39.63;;;16.23;;
3979;SDS011;2004;52.452;13.120;2023-02-23T02:51:12;36.10;;;15.90;;
3979;SDS011;2004;52.452;13.120;2023-02-23T02:59:18;53.67;;;17.70;;
3979;SDS011;2004;52.452;13.120;2023-02-23T03:16:18;37.83;;;16.00;;
3979;SDS011;2004;52.452;13.120;2023-02-23T03:24:37;42.57;;;16.07;;
3979;SDS011;2004;52.452;13.120;2023-02-23T03:32:51;36.60;;;16.67;;
3979;SDS011;2004;52.452;13.120;2023-02-23T03:41:03;34.07;;;16.80;;
3979;SDS011;2004;52.452;13.120;2023-02-23T03:49:16;43.47;;;16.63;;
3979;SDS011;2004;52.452;13.120;2023-02-23T03:57:28;34.73;;;15.77;;
3979;SDS011;2004;52.452;13.120;2023-02-23T04:05:41;33.70;;;15.67;;
3979;SDS011;2004;52.452;13.120;2023-02-23T04:13:53;38.73;;;17.10;;
3979;SDS011;2004;52.452;13.120;2023-02-23T04:21:49;39.60;;;16.40;;
3979;SDS011;2004;52.452;13.120;2023-02-23T04:29:39;42.22;;;18.88;;
3979;SDS011;2004;52.452;13.120;2023-02-23T04:37:30;33.07;;;14.90;;
3979;SDS011;2004;52.452;13.120;2023-02-23T04:45:21;41.57;;;17.40;;
3979;SDS011;2004;52.452;13.120;2023-02-23T04:53:12;38.17;;;17.60;;
3979;SDS011;2004;52.452;13.120;2023-02-23T05:01:06;36.50;;;16.40;;
3979;SDS011;2004;52.452;13.120;2023-02-23T05:08:58;48.63;;;18.13;;
3979;SDS011;2004;52.452;13.120;2023-02-23T05:16:54;37.77;;;17.33;;
3979;SDS011;2004;52.452;13.120;2023-02-23T05:24:44;38.10;;;16.70;;
3979;SDS011;2004;52.452;13.120;2023-02-23T05:32:35;30.40;;;14.90;;
3979;SDS011;2004;52.452;13.120;2023-02-23T05:40:26;50.57;;;23.67;;
3979;SDS011;2004;52.452;13.120;2023-02-23T05:48:16;37.63;;;17.00;;
3979;SDS011;2004;52.452;13.120;2023-02-23T05:56:07;39.20;;;18.53;;
3979;SDS011;2004;52.452;13.120;2023-02-23T06:04:02;57.93;;;23.97;;
3979;SDS011;2004;52.452;13.120;2023-02-23T06:11:52;54.57;;;23.23;;
3979;SDS011;2004;52.452;13.120;2023-02-23T06:19:44;48.47;;;20.60;;
3979;SDS011;2004;52.452;13.120;2023-02-23T06:27:34;36.10;;;16.63;;
3979;SDS011;2004;52.452;13.120;2023-02-23T06:35:25;43.23;;;17.90;;
3979;SDS011;2004;52.452;13.120;2023-02-23T06:43:16;51.63;;;22.73;;
3979;SDS011;2004;52.452;13.120;2023-02-23T06:51:06;46.03;;;17.70;;
3979;SDS011;2004;52.452;13.120;2023-02-23T06:58:57;66.93;;;24.57;;
3979;SDS011;2004;52.452;13.120;2023-02-23T07:06:47;50.10;;;17.33;;
3979;SDS011;2004;52.452;13.120;2023-02-23T07:14:38;58.77;;;25.90;;
3979;SDS011;2004;52.452;13.120;2023-02-23T07:22:29;45.60;;;18.60;;
3979;SDS011;2004;52.452;13.120;2023-02-23T07:30:22;37.77;;;16.67;;
3979;SDS011;2004;52.452;13.120;2023-02-23T07:38:15;38.57;;;17.63;;
3979;SDS011;2004;52.452;13.120;2023-02-23T07:46:06;45.67;;;19.73;;
3979;SDS011;2004;52.452;13.120;2023-02-23T07:54:00;56.83;;;29.37;;
3979;SDS011;2004;52.452;13.120;2023-02-23T08:01:53;26.73;;;15.47;;
3979;SDS011;2004;52.452;13.120;2023-02-23T08:09:44;33.13;;;17.23;;
3979;SDS011;2004;52.452;13.120;2023-02-23T08:17:35;43.40;;;18.50;;
3979;SDS011;2004;52.452;13.120;2023-02-23T08:25:26;54.17;;;23.63;;
3979;SDS011;2004;52.452;13.120;2023-02-23T08:33:17;45.53;;;18.37;;
3979;SDS011;2004;52.452;13.120;2023-02-23T08:41:07;48.67;;;19.27;;
3979;SDS011;2004;52.452;13.120;2023-02-23T08:48:58;55.90;;;30.80;;
3979;SDS011;2004;52.452;13.120;2023-02-23T08:56:49;43.53;;;18.13;;
3979;SDS011;2004;52.452;13.120;2023-02-23T09:04:39;41.23;;;19.77;;
3979;SDS011;2004;52.452;13.120;2023-02-23T09:12:33;43.73;;;18.77;;
3979;SDS011;2004;52.452;13.120;2023-02-23T09:20:23;45.80;;;22.87;;
3979;SDS011;2004;52.452;13.120;2023-02-23T09:28:16;39.50;;;18.63;;
3979;SDS011;2004;52.452;13.120;2023-02-23T09:36:12;46.70;;;18.53;;
3979;SDS011;2004;52.452;13.120;2023-02-23T09:52:39;33.53;;;16.33;;
3979;SDS011;2004;52.452;13.120;2023-02-23T10:00:36;42.83;;;18.40;;
3979;SDS011;2004;52.452;13.120;2023-02-23T10:08:39;40.20;;;17.80;;
3979;SDS011;2004;52.452;13.120;2023-02-23T10:16:50;30.50;;;17.37;;
3979;SDS011;2004;52.452;13.120;2023-02-23T10:25:13;38.10;;;19.87;;
3979;SDS011;2004;52.452;13.120;2023-02-23T10:33:20;39.83;;;19.90;;
3979;SDS011;2004;52.452;13.120;2023-02-23T10:41:15;37.57;;;19.33;;
3979;SDS011;2004;52.452;13.120;2023-02-23T10:49:06;32.23;;;18.50;;
3979;SDS011;2004;52.452;13.120;2023-02-23T10:57:04;36.87;;;20.77;;
3979;SDS011;2004;52.452;13.120;2023-02-23T11:04:57;36.13;;;18.67;;
3979;SDS011;2004;52.452;13.120;2023-02-23T11:12:49;41.00;;;19.87;;
3979;SDS011;2004;52.452;13.120;2023-02-23T11:20:40;42.00;;;20.80;;
3979;SDS011;2004;52.452;13.120;2023-02-23T11:28:32;34.90;;;19.90;;
3979;SDS011;2004;52.452;13.120;2023-02-23T11:36:29;49.50;;;24.83;;
3979;SDS011;2004;52.452;13.120;2023-02-23T11:44:22;46.57;;;21.17;;
3979;SDS011;2004;52.452;13.120;2023-02-23T11:52:14;40.07;;;22.57;;
3979;SDS011;2004;52.452;13.120;2023-02-23T12:00:12;38.47;;;20.90;;
3979;SDS011;2004;52.452;13.120;2023-02-23T12:08:12;37.13;;;22.50;;
3979;SDS011;2004;52.452;13.120;2023-02-23T12:16:11;48.13;;;23.77;;
3979;SDS011;2004;52.452;13.120;2023-02-23T12:32:26;40.03;;;20.90;;
3979;SDS011;2004;52.452;13.120;2023-02-23T12:40:21;43.70;;;22.63;;
3979;SDS011;2004;52.452;13.120;2023-02-23T12:48:30;41.43;;;22.40;;
3979;SDS011;2004;52.452;13.120;2023-02-23T13:04:38;39.70;;;23.07;;
3979;SDS011;2004;52.452;13.120;2023-02-23T13:12:40;37.03;;;21.77;;
3979;SDS011;2004;52.452;13.120;2023-02-23T13:20:40;45.50;;;24.53;;
3979;SDS011;2004;52.452;13.120;2023-02-23T13:28:48;41.33;;;26.80;;
3979;SDS011;2004;52.452;13.120;2023-02-23T13:36:52;47.70;;;28.47;;
3979;SDS011;2004;52.452;13.120;2023-02-23T13:44:50;54.97;;;31.57;;
3979;SDS011;2004;52.452;13.120;2023-02-23T13:52:46;53.83;;;32.40;;
3979;SDS011;2004;52.452;13.120;2023-02-23T14:00:37;58.50;;;31.20;;
3979;SDS011;2004;52.452;13.120;2023-02-23T14:08:32;48.27;;;28.03;;
3979;SDS011;2004;52.452;13.120;2023-02-23T14:16:25;51.37;;;29.27;;
3979;SDS011;2004;52.452;13.120;2023-02-23T14:24:23;69.00;;;35.10;;
3979;SDS011;2004;52.452;13.120;2023-02-23T14:40:20;84.73;;;40.40;;
3979;SDS011;2004;52.452;13.120;2023-02-23T14:48:13;75.73;;;39.87;;
3979;SDS011;2004;52.452;13.120;2023-02-23T14:56:18;78.80;;;41.10;;
3979;SDS011;2004;52.452;13.120;2023-02-23T15:04:11;84.07;;;42.57;;
3979;SDS011;2004;52.452;13.120;2023-02-23T15:12:10;85.33;;;43.73;;
3979;SDS011;2004;52.452;13.120;2023-02-23T15:20:16;99.10;;;43.80;;
3979;SDS011;2004;52.452;13.120;2023-02-23T15:28:10;97.50;;;53.40;;
3979;SDS011;2004;52.452;13.120;2023-02-23T15:36:13;91.17;;;54.43;;
3979;SDS011;2004;52.452;13.120;2023-02-23T15:44:27;81.37;;;48.67;;
3979;SDS011;2004;52.452;13.120;2023-02-23T15:52:22;83.43;;;49.22;;
3979;SDS011;2004;52.452;13.120;2023-02-23T16:00:19;103.37;;;59.33;;
3979;SDS011;2004;52.452;13.120;2023-02-23T16:08:23;91.27;;;46.40;;
3979;SDS011;2004;52.452;13.120;2023-02-23T16:16:14;94.23;;;47.03;;
3979;SDS011;2004;52.452;13.120;2023-02-23T16:24:14;105.30;;;48.37;;
3979;SDS011;2004;52.452;13.120;2023-02-23T16:32:18;104.00;;;49.40;;
3979;SDS011;2004;52.452;13.120;2023-02-23T16:40:11;104.67;;;50.47;;
3979;SDS011;2004;52.452;13.120;2023-02-23T16:48:02;108.30;;;51.10;;
3979;SDS011;2004;52.452;13.120;2023-02-23T16:55:53;125.33;;;52.80;;
3979;SDS011;2004;52.452;13.120;2023-02-23T17:03:49;117.50;;;52.23;;
3979;SDS011;2004;52.452;13.120;2023-02-23T17:11:42;119.27;;;51.93;;
3979;SDS011;2004;52.452;13.120;2023-02-23T17:19:36;112.10;;;51.80;;
3979;SDS011;2004;52.452;13.120;2023-02-23T17:27:26;117.87;;;52.27;;
3979;SDS011;2004;52.452;13.120;2023-02-23T17:35:17;138.03;;;56.90;;
3979;SDS011;2004;52.452;13.120;2023-02-23T17:43:08;141.30;;;58.60;;
3979;SDS011;2004;52.452;13.120;2023-02-23T17:51:03;141.00;;;59.80;;
3979;SDS011;2004;52.452;13.120;2023-02-23T17:58:58;135.87;;;59.77;;
3979;SDS011;2004;52.452;13.120;2023-02-23T18:06:49;122.77;;;55.50;;
3979;SDS011;2004;52.452;13.120;2023-02-23T18:14:39;141.73;;;57.97;;
3979;SDS011;2004;52.452;13.120;2023-02-23T18:22:31;150.60;;;60.73;;
3979;SDS011;2004;52.452;13.120;2023-02-23T18:30:22;134.53;;;57.57;;
3979;SDS011;2004;52.452;13.120;2023-02-23T18:38:14;145.43;;;57.40;;
3979;SDS011;2004;52.452;13.120;2023-02-23T18:46:08;158.57;;;55.60;;
3979;SDS011;2004;52.452;13.120;2023-02-23T18:54:00;131.10;;;54.90;;
3979;SDS011;2004;52.452;13.120;2023-02-23T19:01:52;152.07;;;61.03;;
3979;SDS011;2004;52.452;13.120;2023-02-23T19:09:43;138.63;;;57.90;;
3979;SDS011;2004;52.452;13.120;2023-02-23T19:17:36;153.93;;;60.30;;
3979;SDS011;2004;52.452;13.120;2023-02-23T19:25:26;154.07;;;59.90;;
3979;SDS011;2004;52.452;13.120;2023-02-23T19:33:17;134.07;;;56.80;;
3979;SDS011;2004;52.452;13.120;2023-02-23T19:41:08;116.00;;;49.03;;
3979;SDS011;2004;52.452;13.120;2023-02-23T19:49:00;106.00;;;45.23;;
3979;SDS011;2004;52.452;13.120;2023-02-23T19:56:51;77.03;;;35.63;;
3979;SDS011;2004;52.452;13.120;2023-02-23T20:04:42;69.10;;;30.93;;
3979;SDS011;2004;52.452;13.120;2023-02-23T20:12:34;55.13;;;24.67;;
3979;SDS011;2004;52.452;13.120;2023-02-23T20:20:25;52.77;;;23.47;;
3979;SDS011;2004;52.452;13.120;2023-02-23T20:28:18;57.70;;;22.37;;
3979;SDS011;2004;52.452;13.120;2023-02-23T20:36:08;67.07;;;25.20;;
3979;SDS011;2004;52.452;13.120;2023-02-23T20:44:01;76.53;;;26.87;;
3979;SDS011;2004;52.452;13.120;2023-02-23T20:51:51;81.47;;;28.77;;
3979;SDS011;2004;52.452;13.120;2023-02-23T20:59:43;70.23;;;25.90;;
3979;SDS011;2004;52.452;13.120;2023-02-23T21:07:33;78.13;;;25.37;;
3979;SDS011;2004;52.452;13.120;2023-02-23T21:15:24;95.60;;;28.50;;
3979;SDS011;2004;52.452;13.120;2023-02-23T21:23:16;100.10;;;28.47;;
3979;SDS011;2004;52.452;13.120;2023-02-23T21:31:09;87.83;;;30.40;;
3979;SDS011;2004;52.452;13.120;2023-02-23T21:39:02;95.93;;;29.57;;
3979;SDS011;2004;52.452;13.120;2023-02-23T21:46:53;86.30;;;28.40;;
3979;SDS011;2004;52.452;13.120;2023-02-23T21:54:48;103.47;;;30.60;;
3979;SDS011;2004;52.452;13.120;2023-02-23T22:02:40;109.80;;;30.97;;
3979;SDS011;2004;52.452;13.120;2023-02-23T22:10:31;107.93;;;30.57;;
3979;SDS011;2004;52.452;13.120;2023-02-23T22:18:22;107.53;;;31.20;;
3979;SDS011;2004;52.452;13.120;2023-02-23T22:26:13;118.20;;;32.00;;
3979;SDS011;2004;52.452;13.120;2023-02-23T22:34:03;123.67;;;30.93;;
3979;SDS011;2004;52.452;13.120;2023-02-23T22:41:55;114.40;;;30.87;;
3979;SDS011;2004;52.452;13.120;2023-02-23T22:49:46;115.33;;;32.30;;
3979;SDS011;2004;52.452;13.120;2023-02-23T22:57:37;111.77;;;29.63;;
3979;SDS011;2004;52.452;13.120;2023-02-23T23:05:28;106.70;;;31.10;;
3979;SDS011;2004;52.452;13.120;2023-02-23T23:13:19;97.87;;;29.03;;
3979;SDS011;2004;52.452;13.120;2023-02-23T23:21:10;94.87;;;29.17;;
3979;SDS011;2004;52.452;13.120;2023-02-23T23:29:02;97.57;;;29.40;;
3979;SDS011;2004;52.452;13.120;2023-02-23T23:36:54;106.33;;;29.80;;
3979;SDS011;2004;52.452;13.120;2023-02-23T23:44:45;99.27;;;27.63;;
3979;SDS011;2004;52.452;13.120;2023-02-23T23:52:37;88.40;;;25.63;;
